Time;durP1;ratioP1;P1;durP2;ratioP2;P2;SDS_P1;SDS_P2;PMS_P1;PMS_P2;Temp;Humidity;BMP_temperature;BMP_pressure;BME280_temperature;BME280_humidity;BME280_pressure;Samples;Min_cycle;Max_cycle;Signal;HPM_P1;HPM_P2
2023/06/25 00:01:07;;;;;;;10.70;5.00;;;;;;;22.34;84.75;99035.21;79243;1300;3011552;-64
2023/06/25 00:03:36;;;;;;;10.40;5.60;;;;;;;22.23;85.04;99038.50;78059;1297;3050431;-62
2023/06/25 00:06:03;;;;;;;13.20;5.90;;;;;;;21.96;86.30;99044.90;79195;1300;3013068;-62
2023/06/25 00:08:30;;;;;;;13.40;4.30;;;;;;;21.74;88.07;99045.87;79258;1300;3011447;-63
2023/06/25 00:10:58;;;;;;;6.00;4.10;;;;;;;22.30;86.27;99037.91;77951;1300;3026529;-63
2023/06/25 00:13:25;;;;;;;10.10;4.90;;;;;;;22.71;83.23;99041.06;79284;1297;3012976;-64
2023/06/25 00:15:51;;;;;;;10.00;5.50;;;;;;;22.62;82.58;99038.14;79311;1300;3013039;-64
2023/06/25 00:18:20;;;;;;;9.60;5.40;;;;;;;22.42;83.38;99037.75;77944;1297;3028154;-64
2023/06/25 00:20:46;;;;;;;8.70;5.30;;;;;;;22.12;84.82;99034.30;79234;1300;3013385;-64
2023/06/25 00:23:13;;;;;;;10.00;4.30;;;;;;;21.97;85.69;99032.10;79281;1300;3011629;-65
2023/06/25 00:25:41;;;;;;;11.70;4.40;;;;;;;22.23;85.86;99031.00;78022;1297;3028194;-64
2023/06/25 00:28:08;;;;;;;8.80;4.80;;;;;;;22.70;83.06;99028.09;79216;1297;3013781;-65
2023/06/25 00:30:36;;;;;;;12.40;5.40;;;;;;;22.64;82.94;99029.67;79233;1297;3011876;-63
2023/06/25 00:33:04;;;;;;;15.50;6.30;;;;;;;22.36;83.65;99028.65;78173;1300;3051562;-65
2023/06/25 00:35:50;;;;;;;12.20;6.00;;;;;;;22.09;84.99;99022.61;79243;1300;3013188;-62
2023/06/25 00:38:18;;;;;;;8.40;4.30;;;;;;;21.99;85.98;99013.09;78108;1297;3071088;-65
2023/06/25 00:40:45;;;;;;;8.70;4.50;;;;;;;22.46;84.54;99009.06;79317;1297;3013633;-64
2023/06/25 00:43:15;;;;;;;11.10;4.90;;;;;;;22.70;82.92;99001.41;79329;1297;3011532;-65
2023/06/25 00:45:43;;;;;;;10.80;6.30;;;;;;;22.71;82.51;98997.89;78249;1297;3054039;-62
2023/06/25 00:48:09;;;;;;;9.30;5.80;;;;;;;22.59;81.92;98994.20;79233;1303;3011884;-65
2023/06/25 00:50:36;;;;;;;14.70;6.00;;;;;;;22.42;82.41;98988.30;79463;1301;3011683;-62
2023/06/25 00:53:08;;;;;;;8.80;3.60;;;;;;;22.24;83.53;98981.42;78017;1300;3024872;-65
2023/06/25 00:55:35;;;;;;;6.20;4.20;;;;;;;22.69;82.79;98984.78;79074;1300;3012985;-66
2023/06/25 00:58:03;;;;;;;13.30;4.70;;;;;;;23.12;80.89;98983.24;77988;1300;3026836;-64
2023/06/25 01:00:31;;;;;;;9.90;6.00;;;;;;;23.17;80.27;98989.41;79219;1296;3019181;-63
2023/06/25 01:03:04;;;;;;;9.60;5.70;;;;;;;23.02;80.32;98989.27;79135;1298;3011506;-62
2023/06/25 01:06:04;;;;;;;13.60;5.60;;;;;;;22.76;81.81;98991.36;78102;1300;3052413;-64
2023/06/25 01:08:35;;;;;;;6.80;3.90;;;;;;;22.52;83.70;98991.79;78129;1300;3053364;-64
2023/06/25 01:11:04;;;;;;;8.00;5.00;;;;;;;22.93;82.65;99001.88;79235;1297;3012926;-65
2023/06/25 01:13:33;;;;;;;11.00;5.20;;;;;;;23.01;82.24;99010.39;77912;1303;3051168;-63
2023/06/25 01:16:00;;;;;;;10.90;5.70;;;;;;;22.99;82.14;99005.13;79206;1297;3013897;-63
2023/06/25 01:18:27;;;;;;;11.10;6.10;;;;;;;22.92;81.91;99002.92;79220;1300;3012872;-62
2023/06/25 01:20:56;;;;;;;12.90;5.60;;;;;;;22.73;82.04;99003.71;78035;1302;3025941;-63
2023/06/25 01:23:22;;;;;;;7.70;4.30;;;;;;;22.50;83.33;99003.48;79210;1302;3013386;-62
2023/06/25 01:25:49;;;;;;;10.10;5.00;;;;;;;22.88;82.65;98995.35;79165;1300;3012923;-62
2023/06/25 01:28:20;;;;;;;10.50;5.80;;;;;;;23.26;80.82;98994.91;78116;1297;3050920;-65
2023/06/25 01:30:48;;;;;;;16.80;7.60;;;;;;;23.27;80.28;98992.19;79123;1300;3013585;-66
2023/06/25 01:33:17;;;;;;;10.90;7.60;;;;;;;22.90;81.11;98981.22;78788;1300;3011380;-64
2023/06/25 01:38:42;;;;;;;8.60;5.00;;;;;;;22.62;82.96;98975.63;80158;1298;3013133;-65
2023/06/25 01:41:08;;;;;;;11.80;6.50;;;;;;;23.03;82.24;98977.33;79176;1303;3013619;-65
2023/06/25 01:43:35;;;;;;;10.60;7.00;;;;;;;23.19;81.10;98978.98;79064;1300;3013714;-66
2023/06/25 01:46:03;;;;;;;20.10;8.10;;;;;;;22.98;81.53;98971.98;78024;1300;3028723;-60
2023/06/25 01:48:30;;;;;;;13.00;9.20;;;;;;;22.69;83.22;98967.29;79087;1303;3018946;-63
2023/06/25 01:50:58;;;;;;;16.00;9.50;;;;;;;22.50;84.39;98957.98;77185;1300;3011522;-63
2023/06/25 01:53:26;;;;;;;13.00;7.50;;;;;;;22.37;85.13;98952.67;78160;1303;3050432;-62
2023/06/25 01:55:53;;;;;;;16.60;9.90;;;;;;;22.74;84.02;98949.23;79250;1297;3013018;-66
2023/06/25 01:58:20;;;;;;;19.00;11.00;;;;;;;22.97;82.61;98945.30;79300;1299;3011766;-63
2023/06/25 02:00:48;;;;;;;20.20;11.50;;;;;;;22.93;82.75;98943.36;78060;1303;3026475;-62
2023/06/25 02:03:16;;;;;;;17.80;11.60;;;;;;;22.76;83.60;98938.97;79434;1299;3014429;-64
2023/06/25 02:05:43;;;;;;;26.20;11.30;;;;;;;22.70;83.54;98935.98;79214;1298;3013436;-63
2023/06/25 02:08:11;;;;;;;13.30;7.30;;;;;;;22.60;83.79;98931.29;77977;1297;3048820;-65
2023/06/25 02:10:40;;;;;;;15.10;9.00;;;;;;;23.06;82.66;98938.54;79345;1297;3011789;-64
2023/06/25 02:13:10;;;;;;;16.50;9.10;;;;;;;23.47;81.34;98942.58;78747;1300;3013530;-62
2023/06/25 02:15:36;;;;;;;18.90;10.10;;;;;;;23.48;81.10;98952.05;79271;1302;3013124;-65
2023/06/25 02:18:03;;;;;;;17.30;10.90;;;;;;;23.28;81.80;98961.67;79186;1302;3011553;-64
2023/06/25 02:20:32;;;;;;;17.10;10.90;;;;;;;23.06;82.92;98965.91;77999;1302;3049555;-64
2023/06/25 02:22:59;;;;;;;14.30;6.90;;;;;;;22.91;83.83;98981.48;79418;1298;3013852;-65
2023/06/25 02:25:27;;;;;;;19.40;8.80;;;;;;;23.14;83.54;98993.55;79192;1298;3011735;-63
2023/06/25 02:27:55;;;;;;;19.60;10.40;;;;;;;23.22;83.18;99010.10;78159;1302;3050186;-63
2023/06/25 02:30:22;;;;;;;18.80;11.40;;;;;;;23.01;83.95;99014.51;79348;1300;3011829;-64
2023/06/25 02:32:48;;;;;;;23.10;11.80;;;;;;;22.71;85.38;99017.70;79396;1299;3011591;-63
2023/06/25 02:35:16;;;;;;;24.90;11.40;;;;;;;22.50;86.26;99009.91;78024;1302;3026542;-63
2023/06/25 02:37:44;;;;;;;15.60;7.70;;;;;;;22.35;86.62;98996.77;79224;1297;3013987;-66
2023/06/25 02:40:14;;;;;;;22.20;10.20;;;;;;;22.91;85.36;98978.93;78012;1298;3052171;-63
2023/06/25 02:42:41;;;;;;;21.20;11.40;;;;;;;23.33;82.69;98977.64;79299;1300;3013464;-62
2023/06/25 02:45:08;;;;;;;18.60;11.90;;;;;;;23.26;82.15;98983.13;79169;1300;3011903;-63
2023/06/25 02:47:36;;;;;;;24.00;11.80;;;;;;;22.99;83.28;98989.41;78042;1300;3069820;-63
2023/06/25 02:50:03;;;;;;;21.80;12.50;;;;;;;22.68;85.22;98988.48;79275;1296;3013297;-63
2023/06/25 02:52:31;;;;;;;13.30;7.30;;;;;;;22.57;86.14;98983.55;79248;1296;3013795;-62
2023/06/25 02:55:00;;;;;;;16.90;9.10;;;;;;;23.01;84.54;98979.31;78006;1297;3053723;-64
2023/06/25 02:57:29;;;;;;;17.20;10.90;;;;;;;23.36;82.68;98978.79;79298;1295;3012855;-62
2023/06/25 02:59:58;;;;;;;21.40;12.60;;;;;;;23.32;82.61;98982.26;78875;1299;3013254;-63
2023/06/25 03:02:26;;;;;;;17.70;11.10;;;;;;;23.05;83.71;98981.35;79344;1299;3011706;-63
2023/06/25 03:04:53;;;;;;;21.00;12.10;;;;;;;22.80;85.11;98981.89;79279;1294;3013496;-63
2023/06/25 03:07:21;;;;;;;13.20;8.50;;;;;;;22.66;85.69;98981.70;78165;1300;3057842;-63
2023/06/25 03:09:47;;;;;;;15.40;9.20;;;;;;;23.08;84.24;98982.30;79378;1295;3013548;-64
2023/06/25 03:12:14;;;;;;;20.70;11.00;;;;;;;23.48;82.14;98982.42;79274;1295;3011957;-64
2023/06/25 03:14:43;;;;;;;19.00;12.70;;;;;;;23.57;81.58;98984.05;78156;1297;3054779;-64
2023/06/25 03:17:10;;;;;;;16.40;11.50;;;;;;;23.51;81.39;98982.59;79468;1295;3013309;-64
2023/06/25 03:19:37;;;;;;;19.00;12.20;;;;;;;23.38;81.20;98975.14;79404;1294;3011649;-66
2023/06/25 03:22:04;;;;;;;14.20;8.50;;;;;;;23.15;82.11;98973.24;78125;1295;3026228;-65
2023/06/25 03:24:33;;;;;;;18.00;10.00;;;;;;;23.42;82.02;98981.05;79308;1295;3013262;-65
2023/06/25 03:27:03;;;;;;;17.00;11.60;;;;;;;23.96;80.11;98973.21;78779;1299;3011808;-63
2023/06/25 03:29:31;;;;;;;19.80;12.40;;;;;;;23.97;79.07;98974.88;79537;1298;3011803;-63
2023/06/25 03:31:58;;;;;;;22.70;12.80;;;;;;;23.76;79.28;98972.79;79287;1297;3011558;-66
2023/06/25 03:34:27;;;;;;;19.30;13.20;;;;;;;23.49;80.08;98970.44;78088;1298;3070408;-62
2023/06/25 03:36:54;;;;;;;17.40;12.70;;;;;;;23.12;81.38;98975.67;79321;1294;3013158;-63
2023/06/25 03:39:21;;;;;;;13.40;9.20;;;;;;;22.94;82.48;98971.27;79295;1299;3012719;-63
2023/06/25 03:41:49;;;;;;;19.90;11.30;;;;;;;23.45;81.40;98969.81;78203;1297;3028642;-63
2023/06/25 03:44:16;;;;;;;19.80;12.30;;;;;;;23.88;78.86;98973.14;79269;1300;3013467;-63
2023/06/25 03:46:42;;;;;;;17.80;14.00;;;;;;;23.86;78.22;98971.95;79343;1299;3013532;-62
2023/06/25 03:49:10;;;;;;;28.00;14.40;;;;;;;23.73;78.67;98966.33;78284;1300;3028818;-64
2023/06/25 03:51:37;;;;;;;21.50;16.00;;;;;;;23.37;80.65;98968.06;79375;1299;3013234;-66
2023/06/25 03:54:04;;;;;;;29.20;18.10;;;;;;;23.08;81.94;98969.07;79284;1300;3011636;-64
2023/06/25 03:56:32;;;;;;;16.60;11.00;;;;;;;22.97;82.65;98969.95;77988;1300;3027981;-64
2023/06/25 03:58:59;;;;;;;27.80;13.20;;;;;;;23.45;81.25;98975.67;79341;1300;3013642;-63
2023/06/25 04:01:27;;;;;;;21.70;14.10;;;;;;;23.64;79.86;98974.45;79225;1300;3011829;-63
2023/06/25 04:03:55;;;;;;;21.70;14.90;;;;;;;23.53;80.28;98969.54;78146;1300;3070121;-64
2023/06/25 04:06:21;;;;;;;19.70;13.90;;;;;;;23.36;81.03;98966.78;79417;1294;3013149;-64
2023/06/25 04:08:48;;;;;;;22.00;16.20;;;;;;;23.19;82.11;98959.73;79252;1300;3011556;-62
2023/06/25 04:11:15;;;;;;;20.40;10.30;;;;;;;23.08;82.85;98961.67;78063;1299;3026533;-63
2023/06/25 04:13:43;;;;;;;23.50;11.20;;;;;;;23.47;82.11;98961.11;79334;1297;3014832;-66
2023/06/25 04:16:09;;;;;;;17.00;12.20;;;;;;;23.88;80.50;98959.60;79273;1300;3012895;-63
2023/06/25 04:18:41;;;;;;;21.80;13.70;;;;;;;23.99;79.69;98959.27;78042;1301;3069548;-64
2023/06/25 04:21:08;;;;;;;19.90;14.30;;;;;;;23.87;79.32;98962.27;79303;1294;3011639;-64
2023/06/25 04:23:36;;;;;;;23.30;14.60;;;;;;;23.63;80.31;98962.02;78233;1298;3027881;-65
2023/06/25 04:26:02;;;;;;;23.00;14.10;;;;;;;23.38;80.82;98962.54;79297;1294;3021175;-63
2023/06/25 04:28:30;;;;;;;18.20;9.60;;;;;;;23.28;80.92;98963.94;79395;1294;3011739;-64
2023/06/25 04:30:58;;;;;;;20.30;10.20;;;;;;;23.78;79.96;98964.66;78101;1299;3030067;-62
2023/06/25 04:33:24;;;;;;;20.10;12.00;;;;;;;24.18;78.06;98961.40;79265;1300;3012978;-63
2023/06/25 04:35:52;;;;;;;21.30;12.20;;;;;;;24.09;77.91;98959.73;79451;1294;3011706;-64
2023/06/25 04:38:20;;;;;;;23.80;14.80;;;;;;;23.96;78.28;98955.11;78068;1297;3056920;-64
2023/06/25 04:40:46;;;;;;;23.40;13.80;;;;;;;23.79;79.01;98958.35;79283;1295;3013822;-65
2023/06/25 04:43:13;;;;;;;22.50;14.00;;;;;;;23.61;79.99;98956.89;79510;1297;3011763;-63
2023/06/25 04:45:41;;;;;;;15.90;9.10;;;;;;;23.49;81.00;98958.20;78255;1302;3026009;-64
2023/06/25 04:48:08;;;;;;;17.50;11.10;;;;;;;24.02;79.40;98953.45;79401;1297;3012963;-65
2023/06/25 04:50:35;;;;;;;21.20;12.60;;;;;;;24.40;77.22;98951.17;79185;1297;3011714;-66
2023/06/25 04:53:02;;;;;;;23.90;13.30;;;;;;;24.39;77.29;98951.57;77997;1300;3055959;-64
2023/06/25 04:55:29;;;;;;;23.00;13.00;;;;;;;24.31;77.30;98952.92;79334;1297;3012992;-63
2023/06/25 04:57:55;;;;;;;21.20;14.10;;;;;;;24.22;77.48;98947.77;79489;1296;3011599;-68
2023/06/25 05:00:23;;;;;;;23.20;14.50;;;;;;;24.04;78.41;98953.57;78293;1300;3027285;-68
2023/06/25 05:02:50;;;;;;;17.90;9.60;;;;;;;23.93;79.16;98955.86;79510;1300;3013763;-67
2023/06/25 05:05:17;;;;;;;21.70;11.50;;;;;;;24.39;78.01;98958.85;79375;1300;3013983;-66
2023/06/25 05:07:45;;;;;;;22.30;12.30;;;;;;;24.94;75.46;98960.70;78329;1300;3057049;-67
2023/06/25 05:10:14;;;;;;;20.50;13.30;;;;;;;24.98;74.37;98961.05;79490;1297;3013030;-69
2023/06/25 05:12:43;;;;;;;24.80;14.80;;;;;;;24.86;74.27;98966.00;79072;1297;3011966;-67
2023/06/25 05:15:10;;;;;;;23.40;14.50;;;;;;;24.69;74.64;98965.65;79735;1296;3018994;-66
2023/06/25 05:17:36;;;;;;;28.70;15.80;;;;;;;24.56;74.99;98965.81;79479;1300;3011970;-67
2023/06/25 05:20:05;;;;;;;28.90;15.50;;;;;;;24.48;75.57;98968.61;78126;1297;3026139;-70
2023/06/25 05:22:32;;;;;;;16.70;10.50;;;;;;;24.45;76.08;98969.00;79564;1300;3013323;-68
2023/06/25 05:24:58;;;;;;;20.70;11.50;;;;;;;24.98;74.65;98965.02;79434;1298;3011884;-65
2023/06/25 05:27:26;;;;;;;21.90;13.60;;;;;;;25.45;72.45;98968.93;78334;1300;3054356;-65
2023/06/25 05:29:53;;;;;;;23.70;14.50;;;;;;;25.51;71.67;98969.65;79420;1297;3018298;-66
2023/06/25 05:32:19;;;;;;;23.70;14.20;;;;;;;25.41;71.81;98970.95;79810;1300;3013248;-68
2023/06/25 05:34:47;;;;;;;29.10;15.40;;;;;;;25.13;72.94;98972.04;78157;1300;3026326;-71
2023/06/25 05:37:14;;;;;;;30.30;18.90;;;;;;;24.62;75.86;98977.60;79488;1298;3013814;-76
2023/06/25 05:39:41;;;;;;;25.50;18.10;;;;;;;24.43;77.32;98979.29;79457;1298;3013204;-68
2023/06/25 05:42:09;;;;;;;22.90;13.00;;;;;;;24.49;77.53;98982.51;78260;1297;3026629;-68
2023/06/25 05:44:36;;;;;;;22.30;15.40;;;;;;;24.98;76.22;98985.55;79683;1297;3013521;-68
2023/06/25 05:47:02;;;;;;;31.00;19.30;;;;;;;25.39;73.76;98984.37;79491;1300;3011860;-67
2023/06/25 05:49:30;;;;;;;37.70;22.50;;;;;;;25.58;73.11;98985.02;78372;1299;3027585;-67
2023/06/25 05:51:57;;;;;;;35.50;25.80;;;;;;;25.50;73.06;98986.27;79423;1298;3013225;-66
2023/06/25 05:54:24;;;;;;;38.70;27.90;;;;;;;25.26;73.26;98988.73;79393;1296;3013693;-70
2023/06/25 05:56:52;;;;;;;35.90;25.40;;;;;;;24.76;74.73;98993.54;78230;1297;3026345;-67
2023/06/25 05:59:18;;;;;;;31.90;21.60;;;;;;;24.41;76.37;98993.51;79525;1299;3013146;-66
2023/06/25 06:01:45;;;;;;;16.00;11.30;;;;;;;24.22;77.72;98999.10;79465;1300;3011964;-69
2023/06/25 06:04:13;;;;;;;18.00;11.20;;;;;;;24.41;76.99;98997.80;78302;1299;3026880;-66
2023/06/25 06:06:40;;;;;;;17.60;10.50;;;;;;;24.48;76.30;99000.88;79474;1294;3013043;-66
2023/06/25 06:09:06;;;;;;;19.80;13.70;;;;;;;24.22;77.14;99007.27;79534;1294;3012523;-69
2023/06/25 06:11:34;;;;;;;27.20;17.90;;;;;;;23.78;79.42;99007.72;78355;1295;3026011;-66
2023/06/25 06:14:01;;;;;;;21.80;15.10;;;;;;;23.58;80.19;99011.57;79737;1300;3018081;-71
2023/06/25 06:16:27;;;;;;;20.30;12.10;;;;;;;23.37;80.67;99012.10;79317;1300;3011630;-65
2023/06/25 06:18:55;;;;;;;17.70;8.60;;;;;;;23.07;82.60;99005.02;78137;1298;3028075;-63
2023/06/25 06:21:23;;;;;;;18.00;9.10;;;;;;;23.18;82.50;99000.91;79359;1298;3013686;-64
2023/06/25 06:23:52;;;;;;;15.60;9.20;;;;;;;23.37;81.35;98996.19;79495;1294;3011577;-64
2023/06/25 06:26:20;;;;;;;16.10;9.00;;;;;;;23.29;81.50;98990.52;78036;1295;3054178;-60
2023/06/25 06:28:46;;;;;;;12.00;8.70;;;;;;;23.43;81.42;98983.48;79459;1300;3013084;-64
2023/06/25 06:31:13;;;;;;;13.50;9.00;;;;;;;23.51;79.83;98986.73;79310;1300;3013547;-64
2023/06/25 06:33:41;;;;;;;11.80;6.80;;;;;;;23.45;80.57;98990.52;78060;1299;3028692;-62
2023/06/25 06:36:08;;;;;;;17.30;8.90;;;;;;;23.81;79.28;98990.02;79339;1295;3014076;-63
2023/06/25 06:38:36;;;;;;;14.60;8.30;;;;;;;24.27;77.11;98980.19;79382;1297;3011603;-64
2023/06/25 06:41:04;;;;;;;14.80;8.70;;;;;;;24.48;76.59;98981.88;78095;1300;3053548;-62
2023/06/25 06:43:31;;;;;;;14.90;8.80;;;;;;;24.68;76.08;98983.70;79334;1299;3018897;-64
2023/06/25 06:45:57;;;;;;;15.20;9.70;;;;;;;24.80;75.25;98983.20;79345;1300;3011540;-62
2023/06/25 06:48:25;;;;;;;12.80;8.90;;;;;;;24.90;74.42;98979.58;78222;1301;3029138;-61
2023/06/25 06:50:52;;;;;;;12.10;9.10;;;;;;;24.88;74.05;98979.69;79442;1300;3011871;-64
2023/06/25 06:53:19;;;;;;;11.20;7.20;;;;;;;24.91;74.02;98982.88;79282;1300;3011629;-65
2023/06/25 06:55:49;;;;;;;11.10;6.70;;;;;;;25.62;72.02;98980.46;78049;1299;3053060;-63
2023/06/25 06:58:16;;;;;;;14.80;7.70;;;;;;;26.34;68.79;98980.23;79292;1294;3013458;-64
2023/06/25 07:00:43;;;;;;;10.20;7.00;;;;;;;26.53;66.91;98976.39;79404;1296;3012857;-63
2023/06/25 07:03:11;;;;;;;10.60;6.80;;;;;;;26.53;66.06;98981.54;78063;1300;3026235;-62
2023/06/25 07:05:37;;;;;;;11.50;7.20;;;;;;;26.48;66.14;98986.27;79398;1295;3020469;-63
2023/06/25 07:08:05;;;;;;;10.70;7.30;;;;;;;26.30;66.01;98991.29;79311;1296;3012104;-68
2023/06/25 07:10:35;;;;;;;11.40;8.00;;;;;;;26.17;66.14;98988.35;78303;1299;3052705;-63
2023/06/25 07:13:01;;;;;;;12.20;7.30;;;;;;;26.01;66.10;98991.95;79427;1294;3012978;-65
2023/06/25 07:15:28;;;;;;;12.30;7.90;;;;;;;25.84;66.25;98988.96;79538;1297;3011959;-63
2023/06/25 07:17:56;;;;;;;13.60;7.90;;;;;;;25.72;66.89;98992.34;78041;1298;3068439;-63
2023/06/25 07:20:23;;;;;;;14.80;8.60;;;;;;;25.72;66.60;98991.77;79380;1300;3012920;-65
2023/06/25 07:22:51;;;;;;;13.60;8.20;;;;;;;25.59;66.34;98995.05;79694;1294;3011879;-63
2023/06/25 07:25:19;;;;;;;12.40;8.60;;;;;;;25.53;66.71;98997.13;78042;1295;3054064;-62
2023/06/25 07:27:46;;;;;;;12.70;9.10;;;;;;;25.52;66.82;98996.00;79389;1294;3013307;-62
2023/06/25 07:30:12;;;;;;;11.90;9.00;;;;;;;25.52;66.99;98995.84;79491;1299;3012967;-63
2023/06/25 07:32:41;;;;;;;10.90;8.40;;;;;;;25.63;67.48;98996.14;78197;1299;3067163;-62
2023/06/25 07:35:08;;;;;;;14.60;9.30;;;;;;;25.72;67.16;98998.96;79288;1295;3013402;-63
2023/06/25 07:37:35;;;;;;;13.40;9.40;;;;;;;25.78;66.58;99002.29;79305;1295;3012004;-62
2023/06/25 07:40:03;;;;;;;13.70;10.10;;;;;;;25.85;65.90;99008.67;78127;1295;3026670;-63
2023/06/25 07:42:30;;;;;;;17.50;9.70;;;;;;;25.88;66.38;99007.78;79305;1298;3013752;-63
2023/06/25 07:44:57;;;;;;;14.00;9.20;;;;;;;25.89;68.42;99002.80;79266;1300;3011387;-63
2023/06/25 07:47:25;;;;;;;12.40;6.50;;;;;;;25.90;68.39;99003.72;78052;1299;3069671;-63
2023/06/25 07:49:51;;;;;;;12.00;6.50;;;;;;;26.45;66.82;99004.16;79537;1295;3012897;-65
2023/06/25 07:52:18;;;;;;;14.20;7.00;;;;;;;26.93;65.20;99003.30;79330;1299;3011889;-63
2023/06/25 07:54:46;;;;;;;14.40;6.00;;;;;;;26.99;64.25;98996.23;78027;1298;3026567;-62
2023/06/25 07:57:13;;;;;;;12.60;7.00;;;;;;;26.96;63.96;98999.69;79357;1300;3020844;-61
2023/06/25 07:59:39;;;;;;;10.10;6.10;;;;;;;26.85;64.06;99000.42;79320;1298;3011621;-62
2023/06/25 08:02:07;;;;;;;11.70;6.70;;;;;;;26.72;64.04;99001.46;78046;1295;3027385;-63
2023/06/25 08:04:35;;;;;;;9.00;6.30;;;;;;;26.63;64.06;98999.60;79262;1295;3013739;-64
2023/06/25 08:07:02;;;;;;;10.50;5.70;;;;;;;26.50;64.64;98998.08;79309;1296;3012022;-64
2023/06/25 08:09:31;;;;;;;8.50;6.20;;;;;;;26.42;65.27;98997.79;78130;1298;3054545;-62
2023/06/25 08:11:58;;;;;;;9.50;6.60;;;;;;;26.37;65.74;98996.45;79316;1297;3013426;-63
2023/06/25 08:14:24;;;;;;;8.90;6.10;;;;;;;26.40;65.64;98998.16;79284;1300;3013354;-61
2023/06/25 08:16:52;;;;;;;7.80;6.10;;;;;;;26.48;65.63;98994.80;78043;1299;3068824;-64
2023/06/25 08:19:19;;;;;;;8.80;5.30;;;;;;;26.45;65.95;98991.20;79282;1295;3013638;-64
2023/06/25 08:21:45;;;;;;;8.50;5.80;;;;;;;26.51;66.17;98988.70;79397;1298;3011553;-64
2023/06/25 08:24:13;;;;;;;11.00;5.70;;;;;;;26.57;65.97;98988.49;78221;1296;3029045;-63
2023/06/25 08:26:40;;;;;;;8.80;5.30;;;;;;;26.66;65.31;98986.29;79399;1300;3011759;-63
2023/06/25 08:29:07;;;;;;;7.10;4.40;;;;;;;26.76;64.12;98984.23;79632;1300;3013057;-62
2023/06/25 08:31:36;;;;;;;8.30;4.50;;;;;;;26.89;64.01;98987.71;78049;1298;3068681;-63
2023/06/25 08:34:02;;;;;;;6.10;4.30;;;;;;;26.97;62.90;98985.83;79416;1294;3021303;-65
2023/06/25 08:36:29;;;;;;;6.80;4.80;;;;;;;27.08;62.26;98990.61;79314;1300;3012272;-64
2023/06/25 08:38:57;;;;;;;10.60;5.10;;;;;;;27.15;61.38;98985.41;78162;1300;3028113;-63
2023/06/25 08:41:26;;;;;;;6.40;4.50;;;;;;;27.12;60.85;98982.52;79288;1300;3018669;-63
2023/06/25 08:43:53;;;;;;;6.90;4.40;;;;;;;27.17;60.36;98978.42;79469;1298;3011598;-65
2023/06/25 08:46:22;;;;;;;6.70;4.10;;;;;;;27.24;59.32;98976.77;78090;1302;3070512;-63
2023/06/25 08:48:53;;;;;;;7.40;4.70;;;;;;;27.25;59.16;98977.03;79436;1300;3012788;-64
2023/06/25 08:51:24;;;;;;;7.00;4.60;;;;;;;27.21;59.61;98976.92;78109;1300;3049449;-63
2023/06/25 08:53:51;;;;;;;8.10;5.10;;;;;;;27.29;59.72;98974.77;79298;1299;3013534;-63
2023/06/25 08:56:19;;;;;;;8.90;4.40;;;;;;;27.32;60.18;98969.34;78949;1298;3011657;-62
2023/06/25 08:58:46;;;;;;;11.30;5.20;;;;;;;27.32;60.07;98973.15;79319;1300;3018682;-64
2023/06/25 09:01:13;;;;;;;7.40;4.70;;;;;;;27.33;60.11;98970.77;79462;1300;3011505;-65
2023/06/25 09:03:41;;;;;;;6.80;4.80;;;;;;;27.42;59.93;98969.35;77992;1295;3027419;-63
2023/06/25 09:06:13;;;;;;;7.80;5.10;;;;;;;27.43;60.24;98972.13;79455;1300;3013718;-63
2023/06/25 09:08:41;;;;;;;7.80;4.90;;;;;;;27.42;60.44;98968.23;78211;1296;3053271;-62
2023/06/25 09:11:08;;;;;;;7.00;4.60;;;;;;;27.57;60.00;98971.42;79531;1298;3013159;-65
2023/06/25 09:13:36;;;;;;;8.20;5.00;;;;;;;27.68;61.02;98970.13;79647;1300;3011672;-63
2023/06/25 09:16:05;;;;;;;8.80;4.60;;;;;;;27.83;60.39;98966.59;78288;1300;3068488;-63
2023/06/25 09:18:32;;;;;;;11.90;4.50;;;;;;;27.90;59.65;98961.97;79633;1294;3013650;-63
2023/06/25 09:21:03;;;;;;;5.70;4.90;;;;;;;28.06;59.38;98963.87;79433;1295;3011559;-65
2023/06/25 09:23:31;;;;;;;7.20;4.70;;;;;;;28.20;58.69;98962.55;78216;1298;3054596;-64
2023/06/25 09:25:58;;;;;;;9.20;5.00;;;;;;;28.36;57.43;98955.61;79288;1299;3018428;-64
2023/06/25 09:28:25;;;;;;;6.70;5.10;;;;;;;28.54;56.83;98952.58;79283;1299;3012930;-64
2023/06/25 09:30:59;;;;;;;8.60;5.10;;;;;;;28.67;56.40;98956.04;79208;1300;3026074;-63
2023/06/25 09:33:30;;;;;;;8.80;5.50;;;;;;;28.93;54.43;98956.54;79469;1295;3012437;-61
2023/06/25 09:36:07;;;;;;;6.90;5.60;;;;;;;29.10;53.77;98956.10;78170;1301;3057535;-63
2023/06/25 09:38:35;;;;;;;8.80;6.10;;;;;;;29.10;52.82;98959.52;78139;1298;3050029;-63
2023/06/25 09:41:02;;;;;;;8.50;6.20;;;;;;;29.18;52.37;98958.05;79439;1301;3013682;-64
2023/06/25 09:43:30;;;;;;;14.00;8.40;;;;;;;29.20;52.90;98957.52;79312;1301;3013368;-62
2023/06/25 09:45:58;;;;;;;10.60;8.20;;;;;;;29.26;53.55;98956.71;78114;1300;3053474;-62
2023/06/25 09:48:24;;;;;;;12.60;8.30;;;;;;;29.39;53.38;98958.05;79480;1300;3012913;-62
2023/06/25 09:50:51;;;;;;;11.50;8.90;;;;;;;29.38;53.14;98959.73;79267;1295;3011529;-64
2023/06/25 09:53:22;;;;;;;12.20;8.70;;;;;;;29.32;52.62;98959.56;78124;1299;3026071;-62
2023/06/25 09:55:49;;;;;;;15.40;8.70;;;;;;;29.34;52.90;98955.13;79296;1298;3013017;-64
2023/06/25 09:58:18;;;;;;;14.10;8.40;;;;;;;29.40;52.69;98953.51;78845;1300;3012977;-67
2023/06/25 10:00:45;;;;;;;13.30;8.00;;;;;;;29.38;53.45;98952.63;79602;1300;3013924;-64
2023/06/25 10:03:12;;;;;;;11.80;8.50;;;;;;;29.40;52.78;98952.09;79532;1299;3012745;-64
2023/06/25 10:05:39;;;;;;;12.80;8.50;;;;;;;29.18;52.90;98943.90;78528;1295;3027865;-61
2023/06/25 10:08:06;;;;;;;10.70;7.20;;;;;;;29.18;53.11;98945.56;79571;1295;3013620;-64
2023/06/25 10:10:33;;;;;;;9.60;7.00;;;;;;;29.32;52.75;98943.43;79418;1298;3011961;-62
2023/06/25 10:13:04;;;;;;;9.60;6.90;;;;;;;29.37;52.85;98947.95;78377;1298;3028559;-63
2023/06/25 10:15:35;;;;;;;10.00;6.70;;;;;;;29.35;53.04;98943.76;79589;1298;3011604;-62
2023/06/25 10:18:04;;;;;;;10.80;6.70;;;;;;;29.40;52.72;98943.86;78314;1300;3052414;-63
2023/06/25 10:20:33;;;;;;;7.80;5.90;;;;;;;29.25;51.67;98938.08;79523;1298;3015979;-64
2023/06/25 10:23:08;;;;;;;8.00;5.10;;;;;;;29.32;51.46;98933.27;79078;1298;3011647;-63
2023/06/25 10:25:36;;;;;;;7.70;6.20;;;;;;;29.60;51.61;98930.21;79574;1293;3011971;-65
2023/06/25 10:28:11;;;;;;;13.20;8.10;;;;;;;29.72;51.88;98930.09;78298;1297;3048431;-64
2023/06/25 10:30:47;;;;;;;11.50;7.90;;;;;;;29.60;53.75;98928.50;78385;1292;3052632;-65
2023/06/25 10:33:17;;;;;;;15.90;8.70;;;;;;;29.51;54.83;98928.30;79236;1298;3011659;-64
2023/06/25 10:35:47;;;;;;;7.60;6.80;;;;;;;29.38;54.41;98924.61;79621;1292;3011952;-63
2023/06/25 10:38:16;;;;;;;9.10;7.40;;;;;;;29.43;53.03;98923.16;78580;1299;3053280;-63
2023/06/25 10:40:42;;;;;;;9.30;6.50;;;;;;;29.31;52.37;98923.11;79510;1300;3013632;-63
2023/06/25 10:43:10;;;;;;;10.30;8.10;;;;;;;29.10;53.82;98925.44;79585;1295;3012983;-64
2023/06/25 10:45:38;;;;;;;10.20;7.40;;;;;;;29.08;55.08;98923.92;78163;1301;3026603;-63
2023/06/25 10:48:07;;;;;;;11.40;7.30;;;;;;;29.07;54.89;98919.91;79447;1295;3012832;-64
2023/06/25 10:50:37;;;;;;;9.70;7.60;;;;;;;29.01;54.83;98920.38;78993;1298;3011585;-63
2023/06/25 10:53:13;;;;;;;9.40;7.40;;;;;;;29.01;55.62;98917.45;79525;1298;3013099;-64
2023/06/25 10:55:49;;;;;;;9.90;7.30;;;;;;;29.13;55.52;98919.30;78251;1301;3052066;-64
2023/06/25 10:58:21;;;;;;;14.60;8.40;;;;;;;29.01;55.72;98918.48;78219;1298;3069431;-64
2023/06/25 11:00:57;;;;;;;10.50;7.60;;;;;;;28.84;55.39;98916.64;79562;1295;3011430;-63
2023/06/25 11:03:25;;;;;;;13.20;8.70;;;;;;;28.79;56.50;98915.91;78332;1300;3056649;-62
2023/06/25 11:05:52;;;;;;;11.40;8.10;;;;;;;28.82;56.48;98913.47;79507;1295;3012994;-64
2023/06/25 11:08:23;;;;;;;12.00;8.70;;;;;;;28.85;56.02;98909.86;79331;1295;3013371;-62
2023/06/25 11:10:51;;;;;;;10.20;8.80;;;;;;;28.71;56.50;98908.27;78154;1300;3054110;-65
2023/06/25 11:13:18;;;;;;;11.60;7.90;;;;;;;28.68;56.63;98904.44;79647;1299;3013287;-63
2023/06/25 11:15:45;;;;;;;11.90;8.90;;;;;;;28.56;56.79;98904.75;79353;1298;3011592;-63